Time;durP1;ratioP1;P1;durP2;ratioP2;P2;SDS_P1;SDS_P2;PMS_P1;PMS_P2;Temp;Humidity;BMP_temperature;BMP_pressure;BME280_temperature;BME280_humidity;BME280_pressure;Samples;Min_cycle;Max_cycle;Signal;HPM_P1;HPM_P2
2022/07/26 00:01:54;;;;;;;3.45;1.00;;;24.00;61.10;;;;;;5071284;28;20561;-60
2022/07/26 00:04:19;;;;;;;4.32;0.90;;;24.00;61.20;;;;;;5073057;28;20056;-60
2022/07/26 00:06:45;;;;;;;3.63;0.80;;;24.00;61.20;;;;;;5070716;28;20033;-60
2022/07/26 00:09:10;;;;;;;4.93;1.10;;;24.00;61.30;;;;;;5072761;28;20044;-59
2022/07/26 00:11:36;;;;;;;4.10;1.05;;;24.00;61.30;;;;;;5073129;28;20093;-60
2022/07/26 00:14:03;;;;;;;3.25;0.85;;;24.00;61.30;;;;;;5072092;28;20101;-60
2022/07/26 00:16:28;;;;;;;5.68;0.93;;;24.00;61.30;;;;;;5072585;28;20047;-60
2022/07/26 00:18:54;;;;;;;3.58;1.02;;;24.00;62.00;;;;;;5071209;28;20048;-60
2022/07/26 00:21:19;;;;;;;3.08;0.70;;;24.00;62.00;;;;;;5071831;28;20048;-60
2022/07/26 00:23:45;;;;;;;5.05;0.90;;;24.00;61.40;;;;;;5072303;28;20043;-60
2022/07/26 00:26:10;;;;;;;4.35;0.88;;;24.00;61.40;;;;;;5072407;28;20506;-60
2022/07/26 00:28:36;;;;;;;2.80;0.73;;;24.00;61.40;;;;;;5071809;28;20048;-60
2022/07/26 00:31:02;;;;;;;4.22;0.93;;;24.00;61.50;;;;;;5072551;28;20122;-60
2022/07/26 00:33:28;;;;;;;3.17;0.90;;;24.00;61.50;;;;;;5071084;28;20047;-60
2022/07/26 00:35:53;;;;;;;3.17;0.80;;;24.00;61.50;;;;;;5069717;28;20040;-60
2022/07/26 00:38:19;;;;;;;4.85;1.00;;;24.00;61.60;;;;;;5072758;28;20044;-60
2022/07/26 00:40:44;;;;;;;4.47;0.90;;;24.00;61.60;;;;;;5071706;28;20028;-59
2022/07/26 00:43:10;;;;;;;4.53;0.77;;;23.90;61.60;;;;;;5072672;28;20508;-60
2022/07/26 00:45:35;;;;;;;3.67;0.73;;;23.90;61.60;;;;;;5072563;28;20068;-60
2022/07/26 00:48:01;;;;;;;4.22;1.00;;;23.90;61.60;;;;;;5071377;28;20040;-60
2022/07/26 00:50:26;;;;;;;4.45;0.80;;;23.90;61.70;;;;;;5072565;28;20086;-60
2022/07/26 00:52:53;;;;;;;3.10;0.77;;;23.90;61.70;;;;;;5072232;28;20044;-59
2022/07/26 00:55:19;;;;;;;4.28;1.00;;;23.90;61.70;;;;;;5071589;28;20041;-60
2022/07/26 00:57:45;;;;;;;4.55;1.20;;;23.90;61.80;;;;;;5071927;28;20489;-60
2022/07/26 01:00:16;;;;;;;3.30;0.90;;;23.90;61.70;;;;;;5072198;28;20147;-60
2022/07/26 01:02:42;;;;;;;3.63;1.02;;;23.90;61.80;;;;;;5070535;28;20495;-60
2022/07/26 01:05:08;;;;;;;3.08;1.13;;;23.90;61.80;;;;;;5072417;28;20036;-60
2022/07/26 01:07:34;;;;;;;3.25;1.05;;;23.90;61.80;;;;;;5072499;28;20498;-59
2022/07/26 01:10:00;;;;;;;4.78;0.90;;;23.90;61.80;;;;;;5070992;28;20044;-60
2022/07/26 01:12:26;;;;;;;3.17;1.42;;;23.90;61.90;;;;;;5070961;28;20064;-60
2022/07/26 01:14:51;;;;;;;3.35;0.70;;;23.90;61.90;;;;;;5070503;28;20404;-60
2022/07/26 01:17:17;;;;;;;3.60;0.90;;;23.90;61.90;;;;;;5071206;28;20538;-60
2022/07/26 01:19:43;;;;;;;3.67;0.85;;;23.90;61.90;;;;;;5070935;28;20055;-60
2022/07/26 01:22:08;;;;;;;2.60;0.85;;;23.90;62.00;;;;;;5072109;28;20045;-60
2022/07/26 01:24:34;;;;;;;3.75;0.90;;;23.90;62.00;;;;;;5070178;28;20044;-60
2022/07/26 01:26:59;;;;;;;3.78;1.10;;;23.90;62.00;;;;;;5071294;28;20086;-60
2022/07/26 01:29:25;;;;;;;4.05;0.80;;;23.90;62.00;;;;;;5071932;28;20048;-60
2022/07/26 01:31:50;;;;;;;5.32;1.17;;;23.80;62.00;;;;;;5070676;28;20047;-60
2022/07/26 01:34:16;;;;;;;3.50;1.02;;;23.90;62.10;;;;;;5070965;28;20049;-60
2022/07/26 01:36:42;;;;;;;5.22;0.98;;;23.90;62.10;;;;;;5070554;28;20120;-60
2022/07/26 01:39:07;;;;;;;3.85;0.60;;;23.80;62.10;;;;;;5070839;28;20124;-60
2022/07/26 01:41:33;;;;;;;4.28;1.00;;;23.90;62.10;;;;;;5070892;28;20045;-60
2022/07/26 01:43:59;;;;;;;4.18;0.73;;;23.90;62.20;;;;;;5070733;28;20045;-60
2022/07/26 01:46:24;;;;;;;4.43;1.08;;;23.80;62.20;;;;;;5071668;28;20044;-59
2022/07/26 01:48:50;;;;;;;4.32;0.90;;;23.80;62.20;;;;;;5074371;28;20067;-59
2022/07/26 01:51:16;;;;;;;3.65;0.70;;;23.80;62.20;;;;;;5074865;28;20041;-60
2022/07/26 01:53:44;;;;;;;2.83;0.60;;;23.80;62.20;;;;;;5074348;28;20127;-60
2022/07/26 01:56:13;;;;;;;;;;;23.80;62.20;;;;;;5075642;28;20444;-60
2022/07/26 01:58:39;;;;;;;4.95;1.10;;;23.80;62.20;;;;;;5073394;28;19927;-60
2022/07/26 02:01:05;;;;;;;4.28;1.00;;;23.80;62.30;;;;;;5074907;28;20426;-60
2022/07/26 02:03:30;;;;;;;3.55;0.88;;;23.80;62.30;;;;;;5075562;28;20094;-60
2022/07/26 02:05:56;;;;;;;3.95;1.10;;;23.80;62.30;;;;;;5073852;28;20071;-60
2022/07/26 02:08:21;;;;;;;2.30;0.63;;;23.80;62.40;;;;;;5075051;28;20407;-59
2022/07/26 02:10:59;;;;;;;3.53;1.00;;;23.80;62.40;;;;;;5074627;28;20472;-59
2022/07/26 02:13:25;;;;;;;5.40;0.80;;;23.80;62.40;;;;;;5074744;28;20044;-60
2022/07/26 02:15:51;;;;;;;3.63;0.80;;;23.80;62.40;;;;;;5074936;28;20040;-60
2022/07/26 02:18:16;;;;;;;3.13;0.70;;;23.70;62.40;;;;;;5075138;28;20056;-60
2022/07/26 02:20:42;;;;;;;3.30;0.90;;;23.80;63.10;;;;;;5074229;28;20060;-60
2022/07/26 02:23:07;;;;;;;2.53;0.73;;;23.80;62.50;;;;;;5075139;28;20032;-60
2022/07/26 02:25:33;;;;;;;2.30;0.60;;;23.80;62.50;;;;;;5074679;28;20495;-60
2022/07/26 02:28:00;;;;;;;3.00;0.73;;;23.80;62.50;;;;;;5073559;28;20048;-60
2022/07/26 02:30:25;;;;;;;3.40;0.80;;;23.70;62.50;;;;;;5074997;28;20491;-60
2022/07/26 02:32:51;;;;;;;3.05;0.70;;;23.70;62.50;;;;;;5074564;28;20070;-60
2022/07/26 02:35:16;;;;;;;2.97;0.88;;;23.70;62.50;;;;;;5072892;28;20041;-60
2022/07/26 02:37:42;;;;;;;5.15;1.17;;;23.80;62.60;;;;;;5073500;28;20055;-59
2022/07/26 02:40:09;;;;;;;2.88;0.80;;;23.70;62.50;;;;;;5073904;28;20063;-60
2022/07/26 02:42:34;;;;;;;2.45;0.60;;;23.70;62.60;;;;;;5074383;28;20526;-60
2022/07/26 02:45:00;;;;;;;3.45;0.90;;;23.70;62.50;;;;;;5074486;28;20123;-59
2022/07/26 02:47:25;;;;;;;3.58;0.85;;;23.70;62.50;;;;;;5074113;28;20048;-60
2022/07/26 02:49:51;;;;;;;2.90;0.65;;;23.80;62.70;;;;;;5074435;28;20048;-60
2022/07/26 02:52:17;;;;;;;3.75;0.70;;;23.70;62.60;;;;;;5074371;28;20041;-60
2022/07/26 02:54:42;;;;;;;4.45;0.90;;;23.70;62.70;;;;;;5072671;28;20044;-60
2022/07/26 02:57:08;;;;;;;2.42;0.85;;;23.70;62.70;;;;;;5074008;28;20127;-60
2022/07/26 02:59:33;;;;;;;5.13;1.02;;;23.70;63.30;;;;;;5073810;28;20170;-60
2022/07/26 03:01:59;;;;;;;3.28;0.90;;;23.70;62.70;;;;;;5073433;28;20553;-60
2022/07/26 03:04:25;;;;;;;2.45;0.75;;;23.70;62.70;;;;;;5073337;28;20400;-60
2022/07/26 03:06:50;;;;;;;3.17;0.95;;;23.70;62.80;;;;;;5073885;28;20492;-60
2022/07/26 03:09:16;;;;;;;4.75;0.80;;;23.70;62.80;;;;;;5073374;28;20044;-60
2022/07/26 03:11:42;;;;;;;3.40;0.98;;;23.70;62.80;;;;;;5073955;28;20476;-60
2022/07/26 03:14:07;;;;;;;1.98;0.60;;;23.70;62.80;;;;;;5074231;28;20041;-60
2022/07/26 03:16:33;;;;;;;3.10;0.90;;;23.70;62.80;;;;;;5071990;28;20440;-60
2022/07/26 03:18:59;;;;;;;2.78;0.70;;;23.70;62.80;;;;;;5074061;28;20098;-60
2022/07/26 03:21:25;;;;;;;2.88;0.60;;;23.70;62.90;;;;;;5073818;28;20040;-60
2022/07/26 03:23:50;;;;;;;2.38;0.65;;;23.70;62.90;;;;;;5071314;28;20442;-60
2022/07/26 03:26:16;;;;;;;3.22;0.95;;;23.70;62.90;;;;;;5073281;28;20057;-60
2022/07/26 03:28:43;;;;;;;3.15;0.90;;;23.70;62.90;;;;;;5073826;28;20062;-60
2022/07/26 03:31:09;;;;;;;2.15;0.70;;;23.70;62.90;;;;;;5071603;28;20091;-60
2022/07/26 03:33:34;;;;;;;2.53;0.68;;;23.70;62.90;;;;;;5072146;28;20048;-60
2022/07/26 03:36:00;;;;;;;4.30;0.95;;;23.70;63.00;;;;;;5073580;28;20131;-60
2022/07/26 03:38:25;;;;;;;4.65;1.10;;;23.70;62.90;;;;;;5072518;28;20122;-60
2022/07/26 03:40:51;;;;;;;3.47;0.80;;;23.60;62.90;;;;;;5072878;28;20040;-59
2022/07/26 03:43:18;;;;;;;2.85;0.75;;;23.60;62.90;;;;;;5072441;28;20052;-60
2022/07/26 03:45:43;;;;;;;3.50;0.93;;;23.70;63.00;;;;;;5072395;28;20138;-60
2022/07/26 03:48:09;;;;;;;4.82;0.68;;;23.70;63.10;;;;;;5073588;28;20047;-60
2022/07/26 03:50:34;;;;;;;2.25;0.60;;;23.60;63.00;;;;;;5072300;28;20408;-60
2022/07/26 03:53:00;;;;;;;3.95;0.90;;;23.60;63.00;;;;;;5073133;28;20593;-60
2022/07/26 03:58:30;;;;;;;4.03;0.85;;;23.60;63.00;;;;;;5050159;28;20045;-60
2022/07/26 04:00:55;;;;;;;2.55;1.00;;;23.60;63.10;;;;;;5050514;28;20043;-59
2022/07/26 04:03:21;;;;;;;4.03;1.00;;;23.60;63.00;;;;;;5051694;28;20053;-59
2022/07/26 04:05:47;;;;;;;2.28;0.70;;;23.60;63.10;;;;;;5051652;28;20048;-60
2022/07/26 04:08:12;;;;;;;3.38;0.93;;;23.60;63.10;;;;;;5052805;28;20491;-60
2022/07/26 04:10:38;;;;;;;2.75;0.65;;;23.60;63.10;;;;;;5052834;28;20522;-60
2022/07/26 04:13:03;;;;;;;3.63;0.85;;;23.60;63.10;;;;;;5051797;28;20041;-60
2022/07/26 04:15:29;;;;;;;2.75;0.90;;;23.60;63.10;;;;;;5052868;28;20045;-60
2022/07/26 04:17:54;;;;;;;2.85;0.80;;;23.60;63.10;;;;;;5052836;28;20037;-59
2022/07/26 04:20:20;;;;;;;4.13;1.00;;;23.60;63.10;;;;;;5050969;28;20087;-60
2022/07/26 04:22:45;;;;;;;2.00;0.70;;;23.60;63.10;;;;;;5052491;28;20129;-60
2022/07/26 04:25:11;;;;;;;3.72;0.98;;;23.60;63.10;;;;;;5051205;28;20053;-60
2022/07/26 04:27:36;;;;;;;2.75;0.73;;;23.60;63.20;;;;;;5052042;28;20136;-60
2022/07/26 04:30:03;;;;;;;2.13;0.70;;;23.60;63.20;;;;;;5052441;28;20088;-60
2022/07/26 04:32:29;;;;;;;3.55;0.80;;;23.60;63.20;;;;;;5052756;28;20052;-60
2022/07/26 04:34:54;;;;;;;4.45;0.90;;;23.60;63.20;;;;;;5051385;28;20037;-60
2022/07/26 04:37:20;;;;;;;2.88;1.05;;;23.60;63.20;;;;;;5052826;28;20118;-59
2022/07/26 04:39:45;;;;;;;3.13;0.82;;;23.60;63.20;;;;;;5051829;28;20037;-60
2022/07/26 04:42:11;;;;;;;3.58;0.73;;;23.60;63.20;;;;;;5052415;28;20110;-60
2022/07/26 04:44:37;;;;;;;3.75;1.15;;;23.60;63.30;;;;;;5052570;28;20124;-59
2022/07/26 04:47:03;;;;;;;4.25;0.90;;;23.60;63.30;;;;;;5051739;28;20118;-60
2022/07/26 04:49:28;;;;;;;4.53;1.08;;;23.60;63.30;;;;;;5052408;28;20075;-59
2022/07/26 04:51:54;;;;;;;2.45;0.70;;;23.60;63.30;;;;;;5050914;28;20048;-60
2022/07/26 04:54:21;;;;;;;2.60;0.60;;;23.60;63.30;;;;;;5051868;28;20147;-60
2022/07/26 04:56:47;;;;;;;2.25;0.70;;;23.60;63.30;;;;;;5052012;28;20049;-60
2022/07/26 04:59:13;;;;;;;3.00;0.90;;;23.60;63.30;;;;;;5051410;28;20090;-60
2022/07/26 05:01:38;;;;;;;3.25;0.73;;;23.60;63.30;;;;;;5051657;28;20501;-60
2022/07/26 05:04:04;;;;;;;2.58;0.90;;;23.60;63.30;;;;;;5051814;28;20104;-59
2022/07/26 05:06:31;;;;;;;2.58;0.93;;;23.60;63.30;;;;;;5052223;28;20060;-60
2022/07/26 05:08:56;;;;;;;4.00;0.77;;;23.60;63.30;;;;;;5051394;28;20045;-60
2022/07/26 05:11:22;;;;;;;3.50;0.75;;;23.60;63.30;;;;;;5052040;28;20059;-60
2022/07/26 05:13:48;;;;;;;3.13;1.00;;;23.60;63.40;;;;;;5051779;28;20045;-60
2022/07/26 05:16:13;;;;;;;2.00;0.68;;;23.50;63.40;;;;;;5051829;28;20045;-59
2022/07/26 05:18:39;;;;;;;5.07;1.00;;;23.50;63.40;;;;;;5051981;28;20049;-60
2022/07/26 05:21:05;;;;;;;3.17;0.90;;;23.60;63.40;;;;;;5050690;28;20045;-60
2022/07/26 05:23:30;;;;;;;4.00;0.90;;;23.50;63.40;;;;;;5053789;28;20052;-60
2022/07/26 05:25:56;;;;;;;2.75;0.77;;;23.50;63.40;;;;;;5055436;28;20053;-60
2022/07/26 05:28:22;;;;;;;2.55;0.80;;;23.50;63.40;;;;;;5054752;28;20055;-60
2022/07/26 05:30:47;;;;;;;2.83;0.70;;;23.50;63.50;;;;;;5055232;28;20041;-60
2022/07/26 05:33:13;;;;;;;4.03;0.80;;;23.50;63.50;;;;;;5055750;28;20044;-60
2022/07/26 05:35:39;;;;;;;1.45;0.70;;;23.60;63.60;;;;;;5056070;28;20520;-60
2022/07/26 05:38:04;;;;;;;3.13;0.60;;;23.50;63.50;;;;;;5054720;28;20083;-60
2022/07/26 05:40:30;;;;;;;2.45;0.70;;;23.50;63.60;;;;;;5055863;28;20147;-60
2022/07/26 05:42:56;;;;;;;2.65;0.90;;;23.60;63.70;;;;;;5054125;28;20065;-60
2022/07/26 05:45:21;;;;;;;3.90;0.93;;;23.60;63.70;;;;;;5053762;28;20041;-59
2022/07/26 05:47:50;;;;;;;2.83;0.80;;;23.60;63.70;;;;;;5055348;28;20053;-60
2022/07/26 05:50:16;;;;;;;2.22;0.80;;;23.60;63.80;;;;;;5054986;28;20045;-59
2022/07/26 05:52:41;;;;;;;1.42;0.50;;;23.60;63.80;;;;;;5055722;28;20068;-59
2022/07/26 05:55:08;;;;;;;1.65;0.60;;;23.60;63.90;;;;;;5055200;28;20045;-59
2022/07/26 05:57:33;;;;;;;2.13;0.65;;;23.60;63.80;;;;;;5054742;28;20102;-60
2022/07/26 05:59:59;;;;;;;2.70;0.70;;;23.60;63.90;;;;;;5055083;28;20041;-60
2022/07/26 06:02:24;;;;;;;2.13;0.70;;;23.50;63.90;;;;;;5053853;28;20040;-60
2022/07/26 06:04:50;;;;;;;2.45;0.70;;;23.60;63.80;;;;;;5054548;28;20230;-60
2022/07/26 06:07:15;;;;;;;2.50;1.02;;;23.50;63.80;;;;;;5055353;28;20044;-60
2022/07/26 06:09:41;;;;;;;3.17;0.90;;;23.60;63.80;;;;;;5054365;28;20131;-60
2022/07/26 06:12:07;;;;;;;2.97;0.60;;;23.60;63.90;;;;;;5054173;28;20037;-60
2022/07/26 06:14:33;;;;;;;1.73;0.70;;;23.50;63.80;;;;;;5055197;28;20381;-60
2022/07/26 06:16:58;;;;;;;3.67;1.52;;;23.50;63.80;;;;;;5054934;28;20508;-60
2022/07/26 06:19:24;;;;;;;1.80;0.75;;;23.60;63.90;;;;;;5054564;28;20048;-60
2022/07/26 06:21:49;;;;;;;2.53;0.80;;;23.50;63.90;;;;;;5054749;28;20423;-60
2022/07/26 06:24:15;;;;;;;2.85;0.68;;;23.60;64.00;;;;;;5055193;28;20044;-61
2022/07/26 06:26:41;;;;;;;2.97;0.60;;;23.50;63.90;;;;;;5054018;28;20084;-60
2022/07/26 06:29:06;;;;;;;4.22;0.50;;;23.50;63.90;;;;;;5054756;28;20134;-60
2022/07/26 06:31:32;;;;;;;5.50;0.80;;;23.50;63.90;;;;;;5053785;28;20051;-60
2022/07/26 06:33:58;;;;;;;6.88;1.23;;;23.50;64.10;;;;;;5054922;28;20156;-59
2022/07/26 06:36:23;;;;;;;4.68;1.13;;;23.50;64.20;;;;;;5074504;28;20068;-60
2022/07/26 06:38:49;;;;;;;2.92;0.82;;;23.50;64.20;;;;;;5074522;28;20041;-60
2022/07/26 06:41:14;;;;;;;8.27;0.80;;;23.60;64.40;;;;;;5073944;28;20048;-61
2022/07/26 06:43:40;;;;;;;2.63;0.70;;;23.60;64.40;;;;;;5074684;28;20045;-61
2022/07/26 06:46:05;;;;;;;5.20;0.73;;;23.60;64.10;;;;;;5074362;28;20120;-61
2022/07/26 06:48:31;;;;;;;3.88;0.60;;;23.60;63.80;;;;;;5073869;28;20051;-61
2022/07/26 06:50:56;;;;;;;2.95;0.50;;;23.60;62.80;;;;;;5074362;28;20037;-61
2022/07/26 06:53:22;;;;;;;3.58;0.50;;;23.50;61.90;;;;;;5072513;28;20539;-61
2022/07/26 06:55:47;;;;;;;3.42;0.30;;;23.50;61.50;;;;;;5074257;28;20045;-61
2022/07/26 06:58:13;;;;;;;4.40;0.47;;;23.40;60.80;;;;;;5073513;28;20036;-61
2022/07/26 07:00:38;;;;;;;3.80;0.55;;;23.40;60.30;;;;;;5073159;28;20040;-60
2022/07/26 07:03:04;;;;;;;3.90;0.47;;;23.30;60.00;;;;;;5073446;28;20037;-60
2022/07/26 07:05:30;;;;;;;3.15;0.63;;;23.30;60.00;;;;;;5073978;28;20044;-60
2022/07/26 07:07:55;;;;;;;3.22;0.30;;;23.30;60.20;;;;;;5073211;28;20132;-60
2022/07/26 07:10:21;;;;;;;2.38;0.40;;;23.20;60.40;;;;;;5074317;28;20051;-60
2022/07/26 07:12:46;;;;;;;4.10;0.35;;;23.20;60.50;;;;;;5073921;28;20105;-60
2022/07/26 07:15:12;;;;;;;4.70;1.08;;;23.30;60.80;;;;;;5073418;28;20453;-61
2022/07/26 07:17:37;;;;;;;3.60;0.30;;;23.30;60.90;;;;;;5074288;28;20064;-60
2022/07/26 07:20:04;;;;;;;1.98;0.40;;;23.30;61.00;;;;;;5073798;28;20052;-60
2022/07/26 07:22:30;;;;;;;5.47;0.40;;;23.30;61.00;;;;;;5073485;28;20055;-60
2022/07/26 07:24:55;;;;;;;6.65;0.50;;;23.40;61.20;;;;;;5072407;28;20044;-61
2022/07/26 07:27:21;;;;;;;3.13;0.45;;;23.40;61.30;;;;;;5073895;28;20119;-60
2022/07/26 07:29:46;;;;;;;2.13;0.50;;;23.40;61.30;;;;;;5073042;28;20041;-60
2022/07/26 07:32:12;;;;;;;3.03;0.30;;;23.40;61.40;;;;;;5073572;28;20044;-60
2022/07/26 07:34:37;;;;;;;2.63;0.43;;;23.40;61.50;;;;;;5073991;28;20048;-60
2022/07/26 07:37:03;;;;;;;2.17;0.38;;;23.50;61.50;;;;;;5072756;28;20036;-60
2022/07/26 07:39:29;;;;;;;2.53;0.40;;;23.50;61.60;;;;;;5073666;28;20036;-60
2022/07/26 07:41:54;;;;;;;4.88;0.40;;;23.50;61.60;;;;;;5072338;28;20046;-60
2022/07/26 07:44:20;;;;;;;2.03;0.40;;;23.50;61.70;;;;;;5072911;28;20040;-60
2022/07/26 07:46:45;;;;;;;3.28;0.40;;;23.50;61.60;;;;;;5072867;28;20566;-60
2022/07/26 07:49:11;;;;;;;2.15;0.38;;;23.50;61.60;;;;;;5072544;28;20441;-60
2022/07/26 07:51:36;;;;;;;1.85;0.30;;;23.50;61.60;;;;;;5072378;28;20492;-60
2022/07/26 07:54:02;;;;;;;2.17;0.40;;;23.50;61.50;;;;;;5073244;28;20506;-60
2022/07/26 07:56:28;;;;;;;2.60;0.40;;;23.60;61.60;;;;;;5073319;28;20049;-60
2022/07/26 07:58:53;;;;;;;2.30;0.40;;;23.50;61.50;;;;;;5072262;28;20041;-60
2022/07/26 08:01:19;;;;;;;3.70;0.30;;;23.50;61.50;;;;;;5073224;28;20044;-60
2022/07/26 08:03:45;;;;;;;2.25;0.32;;;23.50;61.50;;;;;;5072234;28;20063;-60
2022/07/26 08:06:10;;;;;;;4.15;0.93;;;23.50;61.30;;;;;;5072809;28;20037;-60
2022/07/26 08:08:36;;;;;;;4.15;0.60;;;23.50;60.90;;;;;;5072579;28;20047;-60
2022/07/26 08:11:02;;;;;;;2.72;0.55;;;23.40;60.80;;;;;;5071786;28;20126;-60
2022/07/26 08:13:28;;;;;;;2.55;0.30;;;23.40;61.60;;;;;;5073000;28;20060;-60
2022/07/26 08:15:53;;;;;;;3.55;0.47;;;23.40;61.20;;;;;;5073021;28;20037;-60
2022/07/26 08:18:19;;;;;;;3.13;0.50;;;23.40;61.30;;;;;;5072465;28;20048;-60
2022/07/26 08:20:45;;;;;;;5.95;0.68;;;23.50;61.40;;;;;;5071355;28;20123;-60
2022/07/26 08:23:10;;;;;;;4.38;0.63;;;23.40;61.30;;;;;;5071946;28;20087;-61
2022/07/26 08:25:36;;;;;;;4.53;0.40;;;23.50;61.40;;;;;;5072038;28;20053;-61
2022/07/26 08:28:02;;;;;;;3.47;0.40;;;23.40;61.40;;;;;;5072521;28;20379;-60
2022/07/26 08:30:27;;;;;;;4.28;0.50;;;23.50;61.40;;;;;;5072556;28;20055;-60
2022/07/26 08:32:53;;;;;;;3.25;0.50;;;23.50;61.50;;;;;;5070388;28;20048;-60
2022/07/26 08:35:20;;;;;;;3.53;0.40;;;23.50;61.60;;;;;;5072969;28;20048;-60
2022/07/26 08:37:45;;;;;;;3.28;0.50;;;23.50;61.60;;;;;;5072806;28;20044;-60
2022/07/26 08:40:11;;;;;;;2.85;0.40;;;23.50;61.50;;;;;;5071954;28;20040;-60
2022/07/26 08:42:37;;;;;;;4.97;0.50;;;23.50;61.60;;;;;;5072637;28;20123;-60
2022/07/26 08:45:03;;;;;;;4.35;0.40;;;23.60;61.60;;;;;;5072036;28;20052;-60
2022/07/26 08:47:28;;;;;;;1.88;0.30;;;23.60;62.20;;;;;;5072070;28;20044;-60
2022/07/26 08:49:54;;;;;;;3.03;0.40;;;23.60;61.50;;;;;;5072366;28;20056;-60
2022/07/26 08:52:19;;;;;;;3.50;0.40;;;23.60;61.50;;;;;;5072835;28;20044;-60
2022/07/26 08:54:46;;;;;;;1.48;0.30;;;23.60;61.50;;;;;;5070872;28;20115;-61
2022/07/26 08:57:12;;;;;;;3.73;0.30;;;23.60;61.50;;;;;;5071581;28;20082;-61
2022/07/26 08:59:38;;;;;;;2.58;0.40;;;23.60;61.50;;;;;;5071892;28;20064;-61
2022/07/26 09:02:09;;;;;;;3.00;0.50;;;23.70;61.60;;;;;;5069877;28;20107;-61
2022/07/26 09:04:41;;;;;;;2.33;0.30;;;23.60;61.50;;;;;;5072462;28;20053;-60
2022/07/26 09:07:10;;;;;;;1.52;0.30;;;23.70;61.50;;;;;;5071505;28;20040;-61
2022/07/26 09:09:57;;;;;;;2.38;0.30;;;23.60;61.40;;;;;;5072548;28;20056;-60
2022/07/26 09:12:23;;;;;;;2.50;0.40;;;23.60;61.50;;;;;;5071630;28;20052;-61
2022/07/26 09:14:49;;;;;;;1.63;0.50;;;23.60;61.40;;;;;;5071309;28;20047;-61
2022/07/26 09:17:17;;;;;;;5.22;0.50;;;23.60;61.20;;;;;;5072142;28;20040;-60
2022/07/26 09:19:43;;;;;;;2.63;0.38;;;23.60;61.00;;;;;;5072584;28;20079;-60
2022/07/26 09:22:13;;;;;;;2.03;0.30;;;23.60;60.90;;;;;;5071937;28;20048;-60
2022/07/26 09:24:40;;;;;;;2.92;0.30;;;23.60;60.70;;;;;;5072075;28;20045;-61
2022/07/26 09:27:08;;;;;;;3.67;0.30;;;23.60;60.70;;;;;;5070485;28;20230;-60
2022/07/26 09:29:43;;;;;;;2.78;0.40;;;23.60;60.60;;;;;;5071338;28;20044;-60
2022/07/26 09:32:25;;;;;;;2.25;0.30;;;23.60;60.20;;;;;;5072271;28;20040;-60
2022/07/26 09:34:57;;;;;;;6.00;0.63;;;23.60;60.00;;;;;;5070912;28;20427;-60
2022/07/26 09:37:33;;;;;;;2.95;0.40;;;23.70;60.20;;;;;;5071667;28;20040;-63
2022/07/26 09:40:00;;;;;;;5.40;0.50;;;23.60;60.00;;;;;;5071477;28;20090;-61
2022/07/26 09:42:26;;;;;;;5.55;0.40;;;23.60;60.00;;;;;;5071142;28;20044;-60
2022/07/26 09:44:52;;;;;;;3.72;0.43;;;23.60;60.00;;;;;;5070783;28;20535;-61
2022/07/26 09:47:18;;;;;;;3.42;0.40;;;23.70;59.90;;;;;;5071942;28;20140;-60
2022/07/26 09:49:43;;;;;;;3.15;0.40;;;23.60;59.80;;;;;;5070776;28;20107;-61
2022/07/26 09:52:17;;;;;;;5.28;0.63;;;23.60;59.90;;;;;;5071422;28;20496;-61
2022/07/26 09:54:45;;;;;;;3.35;0.30;;;23.60;59.70;;;;;;5068855;28;20049;-60
2022/07/26 09:57:11;;;;;;;3.25;0.50;;;23.60;59.60;;;;;;5069700;28;20037;-60
2022/07/26 09:59:37;;;;;;;2.17;0.38;;;23.60;59.40;;;;;;5070020;28;20122;-60
2022/07/26 10:02:02;;;;;;;1.95;0.40;;;23.60;59.30;;;;;;5068181;28;20422;-61
2022/07/26 10:04:28;;;;;;;2.60;0.47;;;23.60;59.10;;;;;;5070711;28;20032;-60
2022/07/26 10:06:56;;;;;;;5.72;0.50;;;23.60;58.90;;;;;;5071267;28;20070;-61
2022/07/26 10:09:22;;;;;;;;;;;23.60;58.80;;;;;;5073905;28;20106;-60
2022/07/26 10:11:55;;;;;;;1.98;0.35;;;23.60;58.60;;;;;;5073762;28;20360;-60
2022/07/26 10:14:44;;;;;;;2.65;0.40;;;23.70;58.60;;;;;;5073917;28;20075;-60
2022/07/26 10:17:28;;;;;;;3.60;0.60;;;23.70;58.30;;;;;;5073511;28;20079;-60
2022/07/26 10:19:59;;;;;;;2.58;0.40;;;23.70;58.10;;;;;;5073507;28;20475;-60
2022/07/26 10:22:29;;;;;;;3.85;0.40;;;23.70;58.00;;;;;;5072845;28;20040;-60
2022/07/26 10:24:55;;;;;;;3.65;0.60;;;23.70;58.00;;;;;;5073981;28;20044;-60
2022/07/26 10:27:39;;;;;;;1.75;0.30;;;23.70;58.50;;;;;;5073486;28;20044;-60
2022/07/26 10:30:17;;;;;;;6.45;0.70;;;23.70;57.70;;;;;;5072563;28;20047;-60
2022/07/26 10:32:55;;;;;;;;;;;23.70;57.50;;;;;;5071165;28;20400;-60
2022/07/26 10:35:39;;;;;;;2.10;0.40;;;23.70;57.50;;;;;;5074462;28;19927;-60
2022/07/26 10:38:06;;;;;;;2.58;0.60;;;23.70;57.20;;;;;;5070825;28;20043;-60
2022/07/26 10:40:31;;;;;;;1.95;0.30;;;23.70;57.10;;;;;;5073589;28;20040;-59
2022/07/26 10:43:27;;;;;;;1.88;0.40;;;23.70;57.10;;;;;;5074185;28;20070;-60
2022/07/26 10:46:27;;;;;;;2.88;0.50;;;23.70;57.10;;;;;;5064205;28;20053;-60
2022/07/26 10:49:05;;;;;;;2.17;0.47;;;23.70;57.10;;;;;;5067178;28;20048;-60
2022/07/26 10:51:35;;;;;;;2.87;0.40;;;23.60;57.30;;;;;;5072970;28;20094;-60
2022/07/26 10:54:05;;;;;;;4.22;0.60;;;23.60;57.30;;;;;;5073359;28;20087;-60
2022/07/26 10:56:31;;;;;;;2.45;0.65;;;23.60;57.30;;;;;;5074037;28;20664;-59
2022/07/26 10:58:57;;;;;;;5.18;0.50;;;23.60;57.20;;;;;;5073468;28;20086;-60
2022/07/26 11:01:30;;;;;;;4.35;0.57;;;23.60;56.60;;;;;;5072885;28;20042;-60
2022/07/26 11:03:56;;;;;;;3.33;0.40;;;23.60;56.60;;;;;;5072633;28;20102;-60
2022/07/26 11:06:21;;;;;;;5.05;0.60;;;23.50;56.60;;;;;;5056011;28;20048;-60
2022/07/26 11:08:47;;;;;;;2.28;0.50;;;23.50;56.60;;;;;;5054889;28;20457;-60
2022/07/26 11:11:13;;;;;;;4.88;0.60;;;23.50;57.20;;;;;;5072452;28;20062;-60
2022/07/26 11:13:39;;;;;;;4.57;0.82;;;23.50;56.40;;;;;;5073188;28;20033;-60
2022/07/26 11:16:08;;;;;;;6.25;1.40;;;23.50;56.50;;;;;;5071736;28;20033;-60
2022/07/26 11:18:35;;;;;;;6.88;1.40;;;23.50;56.30;;;;;;5072488;28;20036;-60
2022/07/26 11:21:09;;;;;;;5.00;0.90;;;23.50;56.20;;;;;;5072182;28;20396;-60
2022/07/26 11:23:35;;;;;;;5.70;0.90;;;23.50;55.90;;;;;;5072524;28;20037;-60
2022/07/26 11:26:12;;;;;;;4.13;0.77;;;23.50;55.80;;;;;;5073489;28;20399;-60
2022/07/26 11:28:48;;;;;;;7.95;1.23;;;23.50;55.70;;;;;;5073228;28;20044;-60
2022/07/26 11:31:14;;;;;;;6.93;1.23;;;23.50;55.70;;;;;;5073932;28;20048;-59
2022/07/26 11:33:41;;;;;;;13.05;2.08;;;23.50;55.70;;;;;;5073823;28;20041;-60
2022/07/26 11:36:08;;;;;;;;;;;23.50;55.80;;;;;;5072148;28;20480;-60
2022/07/26 11:38:47;;;;;;;7.68;1.40;;;23.50;56.00;;;;;;5073893;28;19926;-60
2022/07/26 11:41:16;;;;;;;4.65;1.23;;;23.50;56.00;;;;;;5073415;28;20442;-60
2022/07/26 11:43:42;;;;;;;6.65;1.52;;;23.50;56.20;;;;;;5072879;28;20040;-60
2022/07/26 11:46:07;;;;;;;7.57;1.55;;;23.50;56.20;;;;;;5073588;28;20545;-59
2022/07/26 11:48:33;;;;;;;8.75;1.30;;;23.50;56.20;;;;;;5073464;28;20488;-59
2022/07/26 11:51:11;;;;;;;5.63;0.90;;;23.50;56.20;;;;;;5072392;28;20067;-59
2022/07/26 11:53:37;;;;;;;6.80;1.30;;;23.50;56.20;;;;;;5073542;28;20044;-59
2022/07/26 11:56:30;;;;;;;5.43;1.05;;;23.50;56.20;;;;;;5072519;28;20151;-59
2022/07/26 11:58:56;;;;;;;5.25;1.02;;;23.50;56.20;;;;;;5071994;28;20099;-59
2022/07/26 12:01:22;;;;;;;6.10;1.10;;;23.50;56.20;;;;;;5073360;28;20091;-60
2022/07/26 12:03:50;;;;;;;11.23;1.60;;;23.50;56.20;;;;;;5072304;28;20170;-60
2022/07/26 12:06:20;;;;;;;8.13;1.48;;;23.50;56.20;;;;;;5073311;28;20095;-59
2022/07/26 12:08:53;;;;;;;8.77;1.38;;;23.50;55.70;;;;;;5072786;28;20090;-59
2022/07/26 12:11:19;;;;;;;5.60;1.27;;;23.50;55.70;;;;;;5070686;28;20094;-59
2022/07/26 12:13:59;;;;;;;7.95;1.33;;;23.50;55.80;;;;;;5072768;28;20045;-59
2022/07/26 12:16:46;;;;;;;7.75;1.10;;;23.50;55.90;;;;;;5071988;28;20127;-59
2022/07/26 12:19:17;;;;;;;8.98;1.10;;;23.50;55.90;;;;;;5072257;28;20041;-59
2022/07/26 12:21:47;;;;;;;6.95;1.40;;;23.40;56.00;;;;;;5072536;28;20174;-59
2022/07/26 12:24:33;;;;;;;7.95;0.95;;;23.50;56.10;;;;;;5072555;28;20347;-59
2022/07/26 12:27:09;;;;;;;8.98;1.27;;;23.50;56.10;;;;;;5071511;28;20056;-59
2022/07/26 12:29:35;;;;;;;6.45;1.10;;;23.50;56.10;;;;;;5073043;28;20189;-59
2022/07/26 12:32:09;;;;;;;7.53;1.35;;;23.50;56.10;;;;;;5070850;28;20049;-59
2022/07/26 12:34:36;;;;;;;5.55;1.23;;;23.50;56.10;;;;;;5072958;28;20045;-59
2022/07/26 12:37:12;;;;;;;7.15;1.45;;;23.50;56.20;;;;;;5072782;28;20036;-58
2022/07/26 12:39:38;;;;;;;6.22;1.02;;;23.50;56.20;;;;;;5072032;28;20048;-58
2022/07/26 12:42:19;;;;;;;5.38;1.25;;;23.50;56.20;;;;;;5072275;28;20476;-58
2022/07/26 12:44:45;;;;;;;7.03;1.13;;;23.50;56.20;;;;;;5072653;28;20044;-59
2022/07/26 12:47:10;;;;;;;6.50;1.02;;;23.50;56.20;;;;;;5071775;28;20044;-60
2022/07/26 12:49:36;;;;;;;3.17;0.90;;;23.50;56.20;;;;;;5072827;28;20037;-59
2022/07/26 12:52:01;;;;;;;6.22;1.10;;;23.50;56.10;;;;;;5071356;28;20054;-60